CPX118 Details

Departure: Ted Stevens Anchorage International Airport (PANC)
Arrival: Los Angeles International Airport (KLAX)
Route: MDO B453 KURTT B453 KYLLE B453 BOXER ENI OAK TILLT HUULL HUULL2


Current Weather Information
PANC 232253Z 06006KT 10SM FEW045 BKN100 OVC200 14/04 A3003 RMK AO2 SLPNO T01440039 $
KLAX 232253Z 23008KT 10SM OVC032 17/10 A3000 RMK AO2 SLP157 T01670100